Time;durP1;ratioP1;P1;durP2;ratioP2;P2;SDS_P1;SDS_P2;PMS_P1;PMS_P2;Temp;Humidity;BMP_temperature;BMP_pressure;BME280_temperature;BME280_humidity;BME280_pressure;Samples;Min_cycle;Max_cycle;Signal;HPM_P1;HPM_P2
2023/11/16 00:02:21;;;;;;;90.30;62.80;;;;;;;4.19;100.00;100354.91;112227;1241;21976;-75
2023/11/16 00:04:49;;;;;;;102.80;65.90;;;;;;;4.17;100.00;100355.45;112555;1241;23794;-77
2023/11/16 00:07:17;;;;;;;103.90;68.40;;;;;;;4.14;100.00;100356.51;112225;1242;22461;-77
2023/11/16 00:09:48;;;;;;;103.20;66.40;;;;;;;4.11;100.00;100359.48;112293;1238;23021;-76
2023/11/16 00:12:16;;;;;;;107.30;68.00;;;;;;;4.05;100.00;100358.84;113082;1238;22310;-76
2023/11/16 00:14:44;;;;;;;95.90;64.90;;;;;;;4.03;100.00;100360.42;112963;1238;21946;-75
2023/11/16 00:17:14;;;;;;;96.30;65.70;;;;;;;4.00;100.00;100357.53;112793;1238;23675;-76
2023/11/16 00:19:45;;;;;;;104.40;67.80;;;;;;;3.98;100.00;100357.89;112807;1238;23704;-77
2023/11/16 00:22:22;;;;;;;104.40;66.20;;;;;;;3.97;100.00;100358.92;112933;1238;21974;-75
2023/11/16 00:24:50;;;;;;;96.90;62.10;;;;;;;3.96;100.00;100363.41;112665;1238;22037;-76
2023/11/16 00:27:19;;;;;;;79.10;56.30;;;;;;;3.97;100.00;100369.27;112836;1234;22290;-75
2023/11/16 00:29:48;;;;;;;82.30;56.50;;;;;;;3.95;100.00;100368.44;113285;1234;21924;-75
2023/11/16 00:32:18;;;;;;;76.50;52.90;;;;;;;3.92;100.00;100368.97;113361;1234;23562;-76
2023/11/16 00:34:53;;;;;;;69.40;49.00;;;;;;;3.89;100.00;100371.40;112863;1237;21933;-76
2023/11/16 00:37:22;;;;;;;72.70;50.60;;;;;;;3.85;100.00;100377.30;112256;1239;23020;-74
2023/11/16 00:39:50;;;;;;;69.30;48.40;;;;;;;3.81;100.00;100385.77;112021;1244;21959;-74
2023/11/16 00:42:23;;;;;;;74.00;51.20;;;;;;;3.78;100.00;100388.57;111846;1246;21959;-77
2023/11/16 00:44:56;;;;;;;68.90;48.10;;;;;;;3.75;100.00;100391.35;111825;1246;21970;-77
2023/11/16 00:47:26;;;;;;;56.80;44.90;;;;;;;3.70;100.00;100389.84;112083;1246;21960;-78
2023/11/16 00:49:55;;;;;;;60.00;44.60;;;;;;;3.66;100.00;100390.23;111215;1251;22091;-76
2023/11/16 00:52:26;;;;;;;63.50;46.80;;;;;;;3.61;100.00;100392.51;111576;1246;21961;-75
2023/11/16 00:55:00;;;;;;;63.70;47.50;;;;;;;3.56;100.00;100393.23;111910;1246;22715;-75
2023/11/16 00:57:30;;;;;;;63.40;48.80;;;;;;;3.52;100.00;100392.59;111814;1246;23050;-76
2023/11/16 01:00:01;;;;;;;63.80;49.70;;;;;;;3.48;100.00;100393.12;111818;1246;21977;-77
2023/11/16 01:02:31;;;;;;;64.30;46.10;;;;;;;3.45;100.00;100393.33;111818;1246;22038;-76
2023/11/16 01:05:16;;;;;;;;;;;;;;;;;;;;;
2023/11/16 01:07:44;;;;;;;60.40;45.30;;;;;;;3.26;100.00;100387.96;112081;1241;23623;-76
2023/11/16 01:10:18;;;;;;;66.90;47.10;;;;;;;3.21;100.00;100384.55;112264;1241;23053;-75
2023/11/16 01:12:51;;;;;;;68.40;49.40;;;;;;;3.19;100.00;100384.58;112234;1241;21969;-77
2023/11/16 01:15:25;;;;;;;78.70;55.20;;;;;;;3.16;100.00;100380.98;112394;1241;22074;-76
2023/11/16 01:17:54;;;;;;;73.70;51.70;;;;;;;3.12;100.00;100381.52;112384;1241;21962;-75
2023/11/16 01:20:29;;;;;;;78.70;51.30;;;;;;;3.09;100.00;100384.63;112527;1241;22393;-75
2023/11/16 01:23:02;;;;;;;77.20;53.40;;;;;;;3.06;100.00;100382.59;112778;1234;21958;-74
2023/11/16 01:25:32;;;;;;;71.90;48.80;;;;;;;3.04;100.00;100381.05;113172;1234;21937;-76
2023/11/16 01:28:09;;;;;;;68.70;50.30;;;;;;;3.04;100.00;100382.27;113276;1234;22343;-75
2023/11/16 01:30:38;;;;;;;52.60;44.00;;;;;;;3.03;100.00;100382.27;113304;1234;21956;-76
2023/11/16 01:33:08;;;;;;;55.50;40.20;;;;;;;3.02;100.00;100386.23;113371;1234;21945;-75
2023/11/16 01:35:40;;;;;;;56.80;45.60;;;;;;;2.99;100.00;100387.80;113266;1233;23088;-76
2023/11/16 01:38:12;;;;;;;57.00;42.70;;;;;;;2.95;100.00;100389.88;113403;1234;23662;-76
2023/11/16 01:40:43;;;;;;;88.50;45.30;;;;;;;2.93;100.00;100389.37;113131;1234;21970;-77
2023/11/16 01:43:15;;;;;;;69.60;41.90;;;;;;;2.88;100.00;100390.44;113325;1233;21960;-76
2023/11/16 01:45:43;;;;;;;52.70;41.80;;;;;;;2.85;100.00;100394.75;112920;1237;21965;-77
2023/11/16 01:48:21;;;;;;;55.80;41.60;;;;;;;2.85;100.00;100392.35;112458;1238;23683;-77
2023/11/16 01:50:51;;;;;;;49.60;41.70;;;;;;;2.87;100.00;100391.31;112386;1242;23131;-77
2023/11/16 01:53:24;;;;;;;56.80;44.40;;;;;;;2.88;100.00;100394.05;112407;1242;23597;-76
2023/11/16 01:55:54;;;;;;;56.40;43.00;;;;;;;2.89;100.00;100398.16;112451;1241;21974;-74
2023/11/16 01:58:22;;;;;;;61.00;45.10;;;;;;;2.87;100.00;100400.76;112247;1242;21953;-75
2023/11/16 02:00:51;;;;;;;56.40;44.30;;;;;;;2.85;100.00;100400.08;112421;1242;23603;-76
2023/11/16 02:03:19;;;;;;;54.60;44.00;;;;;;;2.84;100.00;100400.60;112191;1240;21956;-74
2023/11/16 02:05:51;;;;;;;68.30;48.20;;;;;;;2.85;100.00;100397.67;112136;1243;22018;-76
2023/11/16 02:08:19;;;;;;;87.60;54.50;;;;;;;2.81;100.00;100389.45;111502;1249;21968;-76
2023/11/16 02:10:50;;;;;;;81.20;53.30;;;;;;;2.76;100.00;100385.86;111207;1248;21979;-75
2023/11/16 02:13:23;;;;;;;75.70;53.40;;;;;;;2.71;100.00;100383.48;111391;1250;22543;-76
2023/11/16 02:15:55;;;;;;;74.20;52.50;;;;;;;2.67;100.00;100382.30;111486;1249;24159;-77
2023/11/16 02:18:25;;;;;;;68.30;45.10;;;;;;;2.58;100.00;100381.31;111167;1251;23025;-76
2023/11/16 02:20:55;;;;;;;76.70;37.80;;;;;;;2.47;100.00;100380.85;111048;1251;22005;-76
2023/11/16 02:23:24;;;;;;;51.90;39.70;;;;;;;2.37;100.00;100375.55;111187;1250;21966;-75
2023/11/16 02:25:56;;;;;;;71.30;41.60;;;;;;;2.33;100.00;100372.14;111319;1245;23023;-76
2023/11/16 02:28:25;;;;;;;58.70;41.30;;;;;;;2.33;100.00;100373.17;112327;1239;21945;-76
2023/11/16 02:30:53;;;;;;;70.00;39.40;;;;;;;2.35;100.00;100375.05;112895;1239;21973;-75
2023/11/16 02:33:21;;;;;;;67.90;41.50;;;;;;;2.32;100.00;100377.30;112673;1239;21960;-74
2023/11/16 02:35:52;;;;;;;68.10;40.00;;;;;;;2.27;100.00;100382.46;112626;1234;22872;-77
2023/11/16 02:38:20;;;;;;;54.90;39.20;;;;;;;2.19;100.00;100383.69;113402;1234;22051;-75
2023/11/16 02:40:51;;;;;;;55.70;37.40;;;;;;;1.98;100.00;100367.27;113366;1234;23106;-75
2023/11/16 02:43:21;;;;;;;47.90;38.70;;;;;;;1.91;100.00;100370.04;113310;1234;23673;-76
2023/11/16 02:45:49;;;;;;;45.00;37.30;;;;;;;2.02;100.00;100391.45;113310;1234;23868;-76
2023/11/16 02:48:18;;;;;;;54.10;41.80;;;;;;;2.07;100.00;100395.40;113004;1239;21987;-75
2023/11/16 02:50:46;;;;;;;52.60;40.30;;;;;;;2.14;100.00;100395.05;112927;1239;24294;-74
2023/11/16 02:53:18;;;;;;;50.50;38.20;;;;;;;2.21;100.00;100397.08;112766;1239;23586;-75
2023/11/16 02:55:48;;;;;;;46.60;38.80;;;;;;;2.25;100.00;100396.55;111963;1244;21951;-76
2023/11/16 02:58:16;;;;;;;77.70;49.20;;;;;;;2.30;100.00;100393.27;112091;1244;23080;-75
2023/11/16 03:00:44;;;;;;;76.10;58.50;;;;;;;2.30;100.00;100393.10;111950;1244;23749;-74
2023/11/16 03:03:12;;;;;;;62.50;45.80;;;;;;;2.30;100.00;100393.09;112123;1244;21954;-75
2023/11/16 03:05:41;;;;;;;54.90;40.20;;;;;;;2.33;100.00;100392.73;112021;1239;23044;-76
2023/11/16 03:08:08;;;;;;;50.00;37.20;;;;;;;2.34;100.00;100397.55;112658;1239;21950;-76
2023/11/16 03:10:37;;;;;;;49.40;37.70;;;;;;;2.34;100.00;100393.09;112736;1239;21970;-76
2023/11/16 03:13:06;;;;;;;49.20;37.40;;;;;;;2.36;100.00;100392.23;112265;1234;21939;-75
2023/11/16 03:15:34;;;;;;;47.20;34.20;;;;;;;2.39;100.00;100399.42;113273;1233;23600;-75
2023/11/16 03:18:02;;;;;;;48.70;37.20;;;;;;;2.40;100.00;100403.04;113278;1234;23633;-75
2023/11/16 03:20:31;;;;;;;50.70;38.90;;;;;;;2.44;100.00;100409.04;113190;1234;21950;-75
2023/11/16 03:22:59;;;;;;;46.30;36.20;;;;;;;2.50;100.00;100411.08;113425;1234;21958;-77
2023/11/16 03:25:29;;;;;;;44.60;35.30;;;;;;;2.57;100.00;100404.67;113302;1228;23037;-77
2023/11/16 03:27:57;;;;;;;46.40;37.00;;;;;;;2.63;100.00;100405.00;113170;1234;21975;-77
2023/11/16 03:30:24;;;;;;;47.20;35.00;;;;;;;2.68;100.00;100405.67;113342;1234;23002;-75
2023/11/16 03:32:52;;;;;;;49.60;40.20;;;;;;;2.73;100.00;100409.26;113186;1234;22079;-76
2023/11/16 03:35:21;;;;;;;51.00;40.60;;;;;;;2.77;100.00;100413.87;113158;1234;23685;-74
2023/11/16 03:37:50;;;;;;;284.50;229.20;;;;;;;2.80;100.00;100413.50;113278;1233;22215;-74
2023/11/16 03:40:18;;;;;;;126.90;102.00;;;;;;;2.81;100.00;100409.04;113305;1234;23067;-76
2023/11/16 03:42:46;;;;;;;127.20;94.50;;;;;;;2.80;100.00;100406.29;113301;1234;23765;-76
2023/11/16 03:45:16;;;;;;;124.40;87.30;;;;;;;2.82;100.00;100404.55;113141;1234;23711;-75
2023/11/16 03:47:44;;;;;;;58.10;44.00;;;;;;;2.89;100.00;100405.56;113291;1234;21963;-74
2023/11/16 03:50:14;;;;;;;48.20;40.60;;;;;;;2.96;100.00;100401.23;113336;1234;21963;-75
2023/11/16 03:52:42;;;;;;;49.60;38.90;;;;;;;3.01;100.00;100402.40;113325;1234;23702;-74
2023/11/16 03:55:10;;;;;;;51.90;39.70;;;;;;;3.06;100.00;100400.98;113394;1234;21938;-75
2023/11/16 03:57:38;;;;;;;81.90;53.10;;;;;;;3.10;100.00;100405.63;113312;1233;23335;-74
2023/11/16 04:00:09;;;;;;;77.70;57.80;;;;;;;3.11;100.00;100406.98;113155;1234;22449;-74
2023/11/16 04:02:43;;;;;;;71.40;51.30;;;;;;;3.10;100.00;100413.01;113421;1232;23768;-76
2023/11/16 04:05:18;;;;;;;71.80;51.50;;;;;;;3.05;100.00;100411.48;113281;1234;23194;-76
2023/11/16 04:07:49;;;;;;;68.50;49.10;;;;;;;2.99;100.00;100414.11;113401;1232;23776;-77
2023/11/16 04:10:17;;;;;;;65.20;49.30;;;;;;;2.92;100.00;100413.27;113032;1234;22992;-75
2023/11/16 04:12:46;;;;;;;61.70;45.90;;;;;;;2.90;100.00;100405.02;113307;1234;21968;-74
2023/11/16 04:15:17;;;;;;;60.00;44.00;;;;;;;2.91;100.00;100401.77;112660;1235;21950;-76
2023/11/16 04:17:54;;;;;;;59.00;45.20;;;;;;;2.93;100.00;100395.05;111839;1245;24321;-76
2023/11/16 04:20:26;;;;;;;54.10;44.10;;;;;;;2.94;100.00;100392.13;112237;1244;23680;-77
2023/11/16 04:22:55;;;;;;;55.10;42.30;;;;;;;2.94;100.00;100390.58;112146;1245;23779;-76
2023/11/16 04:25:27;;;;;;;52.70;41.20;;;;;;;2.96;100.00;100389.54;111944;1245;23016;-77
2023/11/16 04:28:04;;;;;;;;;;;;;;;3.00;100.00;100382.12;112016;1245;22631;-76
2023/11/16 04:30:37;;;;;;;58.10;42.70;;;;;;;2.92;100.00;100383.02;112125;1241;22081;-77
2023/11/16 04:33:08;;;;;;;58.60;47.50;;;;;;;2.84;100.00;100382.38;112289;1239;23025;-77
2023/11/16 04:35:37;;;;;;;66.10;52.20;;;;;;;2.85;100.00;100384.95;112963;1234;21964;-76
2023/11/16 04:38:09;;;;;;;63.20;47.20;;;;;;;2.87;100.00;100387.53;113308;1234;24291;-76
2023/11/16 04:40:40;;;;;;;115.40;75.70;;;;;;;2.87;100.00;100392.52;113311;1234;21960;-78
2023/11/16 04:43:08;;;;;;;362.50;177.00;;;;;;;2.88;100.00;100390.61;113387;1233;21965;-74
2023/11/16 04:45:39;;;;;;;250.90;126.00;;;;;;;2.93;100.00;100386.45;113375;1234;23776;-75
2023/11/16 04:48:09;;;;;;;659.70;309.80;;;;;;;2.99;100.00;100383.66;113340;1233;23016;-76
2023/11/16 04:50:38;;;;;;;393.20;183.90;;;;;;;3.05;100.00;100386.89;113375;1233;23715;-75
2023/11/16 04:53:10;;;;;;;136.20;78.50;;;;;;;3.08;100.00;100389.80;113189;1233;21948;-74
2023/11/16 04:55:39;;;;;;;79.50;55.40;;;;;;;3.11;100.00;100394.25;113191;1234;21973;-76
2023/11/16 04:58:10;;;;;;;67.20;52.10;;;;;;;3.17;100.00;100386.47;112590;1241;22060;-78
2023/11/16 05:00:39;;;;;;;69.90;51.50;;;;;;;3.20;100.00;100389.02;112534;1241;22226;-76
2023/11/16 05:03:07;;;;;;;61.60;46.70;;;;;;;3.23;100.00;100387.98;112238;1241;21961;-75
2023/11/16 05:05:41;;;;;;;57.60;43.60;;;;;;;3.23;100.00;100389.02;112416;1241;23581;-77
2023/11/16 05:08:12;;;;;;;53.70;42.20;;;;;;;3.23;100.00;100391.94;112295;1241;21995;-76
2023/11/16 05:10:45;;;;;;;49.70;40.70;;;;;;;3.23;100.00;100386.27;112410;1241;24105;-76
2023/11/16 05:13:18;;;;;;;55.10;43.50;;;;;;;3.23;100.00;100389.18;112366;1241;22018;-74
2023/11/16 05:15:51;;;;;;;55.30;43.80;;;;;;;3.24;100.00;100386.25;112703;1233;23704;-75
2023/11/16 05:18:22;;;;;;;51.60;42.40;;;;;;;3.30;100.00;100383.98;113197;1234;23621;-75
2023/11/16 05:20:54;;;;;;;48.80;41.40;;;;;;;3.38;100.00;100380.83;113351;1234;23720;-75
2023/11/16 05:23:22;;;;;;;64.80;51.70;;;;;;;3.46;100.00;100380.41;113305;1233;23029;-74
2023/11/16 05:25:53;;;;;;;49.50;42.30;;;;;;;3.56;100.00;100381.02;112777;1238;22603;-74
2023/11/16 05:28:26;;;;;;;47.00;39.40;;;;;;;3.64;100.00;100383.37;112982;1238;23684;-74
2023/11/16 05:30:56;;;;;;;47.00;41.90;;;;;;;3.71;100.00;100383.80;112912;1237;22051;-76
2023/11/16 05:33:34;;;;;;;;;;;;;;;;;;;;;
2023/11/16 05:36:06;;;;;;;52.00;42.90;;;;;;;3.84;100.00;100378.86;113106;1234;21942;-75
2023/11/16 05:38:35;;;;;;;57.70;47.60;;;;;;;3.88;100.00;100378.14;113183;1237;21941;-75
2023/11/16 05:41:04;;;;;;;57.70;46.30;;;;;;;3.95;100.00;100376.52;112985;1238;23620;-75
2023/11/16 05:43:34;;;;;;;55.00;45.00;;;;;;;3.99;100.00;100376.14;113170;1233;22385;-75
2023/11/16 05:46:03;;;;;;;50.70;42.30;;;;;;;4.01;100.00;100379.57;113314;1233;21967;-76
2023/11/16 05:48:33;;;;;;;47.10;42.10;;;;;;;4.00;100.00;100373.88;113311;1233;22946;-75
2023/11/16 05:51:05;;;;;;;45.40;38.80;;;;;;;3.99;100.00;100370.97;113204;1233;21936;-75
2023/11/16 05:53:36;;;;;;;47.00;41.80;;;;;;;4.00;100.00;100369.05;113129;1234;21939;-76
2023/11/16 05:56:08;;;;;;;49.10;40.30;;;;;;;4.01;100.00;100369.74;113327;1233;22025;-76
2023/11/16 05:58:41;;;;;;;45.10;39.20;;;;;;;3.99;100.00;100365.27;113384;1229;21951;-76
2023/11/16 06:01:13;;;;;;;54.70;46.10;;;;;;;4.00;100.00;100366.48;112752;1239;23687;-75
2023/11/16 06:03:41;;;;;;;57.60;46.60;;;;;;;4.01;100.00;100365.78;112709;1239;21942;-77
2023/11/16 06:06:10;;;;;;;57.90;46.20;;;;;;;4.03;100.00;100363.52;112445;1239;21940;-75
2023/11/16 06:08:40;;;;;;;51.10;42.60;;;;;;;4.04;100.00;100366.42;112615;1239;24418;-74
2023/11/16 06:11:08;;;;;;;52.70;43.90;;;;;;;4.05;100.00;100370.39;112827;1239;21958;-74
2023/11/16 06:13:37;;;;;;;56.10;45.80;;;;;;;4.05;100.00;100370.21;112639;1238;23018;-77
2023/11/16 06:16:05;;;;;;;60.40;49.50;;;;;;;4.08;100.00;100367.25;112802;1238;21939;-75
2023/11/16 06:18:33;;;;;;;57.40;44.80;;;;;;;4.09;100.00;100362.08;112714;1234;22548;-74
2023/11/16 06:21:05;;;;;;;58.90;44.10;;;;;;;4.12;100.00;100364.63;113107;1234;22828;-76
2023/11/16 06:23:34;;;;;;;48.10;42.90;;;;;;;4.14;100.00;100365.48;113352;1234;22015;-77
2023/11/16 06:26:02;;;;;;;55.70;44.80;;;;;;;4.17;100.00;100366.64;113315;1234;21979;-75
2023/11/16 06:28:33;;;;;;;53.90;44.80;;;;;;;4.19;100.00;100366.11;113520;1233;23616;-76
2023/11/16 06:31:04;;;;;;;59.80;47.50;;;;;;;4.22;100.00;100364.00;113358;1234;21994;-76
2023/11/16 06:33:35;;;;;;;60.10;53.30;;;;;;;4.24;100.00;100359.33;113394;1230;23704;-76
2023/11/16 06:36:04;;;;;;;75.50;63.80;;;;;;;4.25;100.00;100355.52;113309;1234;21939;-76
2023/11/16 06:38:36;;;;;;;;;;;;;;;4.28;100.00;100353.25;113527;1234;21931;-77
2023/11/16 06:41:05;;;;;;;75.10;56.80;;;;;;;4.25;100.00;100352.95;113267;1234;21953;-75
2023/11/16 06:43:38;;;;;;;65.80;49.50;;;;;;;4.28;100.00;100353.08;113469;1234;22102;-75
2023/11/16 06:46:15;;;;;;;60.00;48.60;;;;;;;4.31;100.00;100353.73;113370;1234;21957;-76
2023/11/16 06:48:47;;;;;;;67.20;50.10;;;;;;;4.35;100.00;100356.27;113410;1234;23018;-78
2023/11/16 06:51:20;;;;;;;64.00;49.40;;;;;;;4.40;100.00;100352.09;113322;1234;21970;-78
2023/11/16 06:53:52;;;;;;;55.40;48.40;;;;;;;4.44;100.00;100353.75;113494;1234;22717;-83
2023/11/16 06:56:27;;;;;;;66.10;48.80;;;;;;;4.47;100.00;100350.93;113339;1234;21949;-79
2023/11/16 06:59:01;;;;;;;61.40;51.10;;;;;;;4.52;100.00;100349.84;113320;1234;21939;-82
2023/11/16 07:01:42;;;;;;;172.20;141.80;;;;;;;4.61;100.00;100346.98;113616;1234;21961;-78
2023/11/16 07:04:11;;;;;;;80.00;66.30;;;;;;;4.70;100.00;100341.86;112860;1238;21968;-77
2023/11/16 07:06:40;;;;;;;68.50;56.30;;;;;;;4.75;100.00;100348.34;112855;1238;21962;-77
2023/11/16 07:09:08;;;;;;;67.80;57.70;;;;;;;4.79;100.00;100351.21;113003;1238;21959;-78
2023/11/16 07:11:38;;;;;;;68.60;57.20;;;;;;;4.86;100.00;100355.95;112827;1238;21987;-77
2023/11/16 07:14:08;;;;;;;72.10;56.00;;;;;;;4.93;100.00;100356.53;112983;1238;22842;-77
2023/11/16 07:16:37;;;;;;;65.50;54.50;;;;;;;5.01;100.00;100360.55;113190;1238;23604;-78
2023/11/16 07:19:06;;;;;;;69.50;58.00;;;;;;;5.07;100.00;100361.67;112971;1238;21945;-78
2023/11/16 07:21:37;;;;;;;66.30;55.80;;;;;;;5.08;100.00;100364.93;113107;1234;21953;-80
2023/11/16 07:24:07;;;;;;;69.90;56.40;;;;;;;5.09;100.00;100366.64;113701;1234;21933;-79
2023/11/16 07:26:35;;;;;;;66.80;54.80;;;;;;;5.12;100.00;100364.70;113493;1234;21952;-79
2023/11/16 07:29:04;;;;;;;62.60;55.30;;;;;;;5.18;100.00;100367.20;112735;1241;21978;-84
2023/11/16 07:32:10;;;;;;;66.10;57.10;;;;;;;5.19;100.00;100367.71;112692;1240;21968;-81
2023/11/16 07:34:53;;;;;;;72.50;59.70;;;;;;;5.23;100.00;100364.52;112769;1241;21961;-79
2023/11/16 07:37:40;;;;;;;78.50;62.40;;;;;;;5.28;100.00;100363.07;112722;1242;23018;-78
2023/11/16 07:40:25;;;;;;;72.40;58.40;;;;;;;5.33;100.00;100361.10;112629;1242;23031;-80
2023/11/16 07:43:11;;;;;;;85.50;60.90;;;;;;;5.39;100.00;100354.78;112669;1242;22742;-81
2023/11/16 07:45:46;;;;;;;100.50;64.90;;;;;;;5.49;100.00;100353.08;111882;1248;21966;-79
2023/11/16 07:48:31;;;;;;;81.50;57.60;;;;;;;5.57;100.00;100350.17;112091;1249;21956;-81
2023/11/16 07:51:22;;;;;;;62.30;52.30;;;;;;;5.62;100.00;100348.70;111579;1244;23753;-82
2023/11/16 07:54:00;;;;;;;58.20;49.70;;;;;;;5.67;100.00;100352.75;111448;1257;22447;-80
2023/11/16 07:56:39;;;;;;;60.40;53.60;;;;;;;5.70;100.00;100347.36;110943;1257;21978;-80
2023/11/16 07:59:18;;;;;;;83.90;74.80;;;;;;;5.64;100.00;100336.42;111087;1257;22047;-80
2023/11/16 08:01:55;;;;;;;57.20;51.00;;;;;;;5.71;100.00;100345.96;110484;1263;23731;-81
2023/11/16 08:04:27;;;;;;;64.10;49.80;;;;;;;5.71;100.00;100345.95;110156;1264;23156;-81
2023/11/16 08:06:59;;;;;;;52.70;47.10;;;;;;;5.73;100.00;100341.79;110811;1259;22074;-81
2023/11/16 08:09:34;;;;;;;52.10;46.50;;;;;;;5.72;100.00;100339.02;111536;1252;22729;-81
2023/11/16 08:12:10;;;;;;;57.60;46.40;;;;;;;5.71;100.00;100338.03;111512;1252;22776;-81
2023/11/16 08:14:42;;;;;;;54.60;45.50;;;;;;;5.72;100.00;100339.73;111525;1253;21948;-79
2023/11/16 08:17:17;;;;;;;53.00;47.20;;;;;;;5.76;100.00;100340.35;111582;1253;22842;-80
2023/11/16 08:19:52;;;;;;;55.40;46.40;;;;;;;5.80;100.00;100342.85;111506;1249;23026;-79
2023/11/16 08:22:37;;;;;;;53.50;47.70;;;;;;;5.88;100.00;100341.86;112393;1244;21974;-81
2023/11/16 08:25:40;;;;;;;55.20;46.70;;;;;;;5.96;100.00;100337.92;112308;1244;21948;-82
2023/11/16 08:28:14;;;;;;;50.40;43.70;;;;;;;6.05;100.00;100339.14;112526;1244;21965;-84
2023/11/16 08:31:01;;;;;;;45.70;40.80;;;;;;;6.11;100.00;100336.09;111791;1249;23691;-82
2023/11/16 08:34:02;;;;;;;54.10;42.70;;;;;;;6.14;100.00;100331.88;107952;1244;5447503;-82
2023/11/16 08:36:37;;;;;;;56.50;47.70;;;;;;;6.18;100.00;100330.92;112567;1239;21926;-82
2023/11/16 08:39:08;;;;;;;54.00;48.10;;;;;;;6.22;100.00;100332.23;112573;1239;21957;-84
2023/11/16 08:41:52;;;;;;;48.00;42.90;;;;;;;6.25;100.00;100330.29;112413;1239;21948;-83
2023/11/16 08:44:33;;;;;;;46.40;41.50;;;;;;;6.29;100.00;100330.20;112647;1239;22060;-82
2023/11/16 08:47:18;;;;;;;48.60;43.50;;;;;;;6.32;100.00;100330.48;112726;1239;23242;-86
2023/11/16 08:50:07;;;;;;;43.00;38.50;;;;;;;6.36;100.00;100325.20;113397;1234;22103;-83
2023/11/16 08:52:49;;;;;;;45.10;40.50;;;;;;;6.38;100.00;100326.73;113307;1235;21965;-82
2023/11/16 08:55:42;;;;;;;47.70;42.90;;;;;;;6.39;100.00;100331.55;113034;1239;22459;-83
2023/11/16 08:58:29;;;;;;;42.70;37.60;;;;;;;6.44;100.00;100335.08;112646;1232;23026;-84
2023/11/16 09:01:07;;;;;;;38.90;35.00;;;;;;;6.52;100.00;100331.29;113182;1239;21967;-84
2023/11/16 09:03:50;;;;;;;35.70;32.00;;;;;;;6.60;100.00;100327.99;113057;1238;24291;-82
2023/11/16 09:06:36;;;;;;;34.30;30.70;;;;;;;6.67;100.00;100323.17;113139;1239;22391;-85
2023/11/16 09:09:38;;;;;;;34.40;30.80;;;;;;;6.64;100.00;100315.63;112912;1239;21959;-83
2023/11/16 09:12:31;;;;;;;40.50;33.60;;;;;;;6.68;100.00;100323.16;112887;1239;24288;-83
2023/11/16 09:15:26;;;;;;;38.70;34.50;;;;;;;6.74;100.00;100315.05;113709;1235;21938;-83
2023/11/16 09:18:44;;;;;;;;;;;;;;;;;;;;;
2023/11/16 09:21:30;;;;;;;44.80;40.00;;;;;;;6.83;100.00;100308.80;113013;1240;22366;-83
2023/11/16 09:24:07;;;;;;;;;;;;;;;6.88;100.00;100307.64;112814;1240;21949;-83
2023/11/16 09:26:46;;;;;;;38.10;33.90;;;;;;;6.87;100.00;100307.16;113077;1240;21981;-83
2023/11/16 09:29:36;;;;;;;37.10;33.10;;;;;;;6.96;100.00;100305.39;112946;1239;21960;-82
2023/11/16 09:32:18;;;;;;;39.60;35.40;;;;;;;7.08;100.00;100306.86;112598;1244;23690;-82
2023/11/16 09:34:59;;;;;;;41.70;37.00;;;;;;;7.19;100.00;100305.70;112545;1245;24288;-83
2023/11/16 09:38:08;;;;;;;;;;;;;;;;;;;;;
2023/11/16 09:41:30;;;;;;;35.10;31.40;;;;;;;7.43;100.00;100293.17;112810;1239;21948;-85
2023/11/16 09:44:07;;;;;;;34.70;31.10;;;;;;;7.54;100.00;100290.27;113115;1239;23008;-86
2023/11/16 09:46:52;;;;;;;35.90;32.20;;;;;;;7.61;100.00;100286.27;112671;1241;21971;-83
2023/11/16 09:49:35;;;;;;;39.80;35.70;;;;;;;7.66;100.00;100281.30;112434;1241;22035;-86
2023/11/16 09:52:51;;;;;;;34.30;31.10;;;;;;;7.67;100.00;100267.41;112988;1241;23185;-83
2023/11/16 09:56:06;;;;;;;36.30;31.70;;;;;;;7.82;100.00;100273.61;112757;1239;23062;-83
2023/11/16 09:59:02;;;;;;;33.60;30.30;;;;;;;7.98;100.00;100266.73;112850;1241;23606;-80
2023/11/16 10:02:10;;;;;;;37.00;29.30;;;;;;;8.10;100.00;100259.10;112382;1246;21958;-83
2023/11/16 10:05:45;;;;;;;45.60;34.00;;;;;;;8.13;100.00;100239.26;111754;1251;21942;-86
2023/11/16 10:09:27;;;;;;;44.20;33.30;;;;;;;8.47;100.00;100245.71;112060;1246;22333;-84
2023/11/16 10:13:03;;;;;;;31.30;28.00;;;;;;;8.89;100.00;100241.11;112211;1246;22016;-84
2023/11/16 10:16:14;;;;;;;40.60;35.40;;;;;;;9.32;100.00;100243.84;112231;1246;22192;-81
2023/11/16 10:19:30;;;;;;;35.00;30.40;;;;;;;9.68;100.00;100238.73;112166;1242;23386;-81
2023/11/16 10:22:32;;;;;;;48.60;33.90;;;;;;;10.00;100.00;100233.62;112986;1242;21946;-80
2023/11/16 10:29:06;;;;;;;22.40;17.50;;;;;;;10.38;100.00;100232.39;112690;1242;21954;-80
2023/11/16 10:32:06;;;;;;;20.00;14.80;;;;;;;10.37;100.00;100227.90;112798;1242;21991;-81
2023/11/16 10:35:25;;;;;;;28.40;20.70;;;;;;;10.30;100.00;100225.88;111826;1247;22008;-81
2023/11/16 10:38:10;;;;;;;29.70;21.40;;;;;;;10.19;100.00;100218.10;112062;1247;21963;-80
2023/11/16 10:40:56;;;;;;;39.80;23.20;;;;;;;10.12;100.00;100216.44;112133;1247;23598;-80
2023/11/16 10:43:55;;;;;;;;;;;;;;;;;;;;;
2023/11/16 10:46:44;;;;;;;32.60;20.10;;;;;;;10.01;100.00;100214.08;112678;1241;22295;-81
2023/11/16 10:49:49;;;;;;;27.40;21.80;;;;;;;10.01;100.00;100211.50;113113;1241;22099;-82
2023/11/16 10:52:40;;;;;;;29.80;25.20;;;;;;;10.05;100.00;100206.83;113026;1234;21943;-82
2023/11/16 10:55:31;;;;;;;28.30;22.60;;;;;;;10.12;100.00;100205.14;112866;1241;21973;-82
2023/11/16 10:58:39;;;;;;;23.50;20.50;;;;;;;10.35;100.00;100198.71;112944;1241;22463;-81
2023/11/16 11:01:30;;;;;;;99.20;88.60;;;;;;;10.52;100.00;100194.40;112860;1241;21978;-80
2023/11/16 11:04:08;;;;;;;17.50;15.60;;;;;;;10.49;100.00;100193.67;112965;1241;21996;-81
2023/11/16 11:07:04;;;;;;;20.10;11.80;;;;;;;10.40;100.00;100190.02;112898;1241;21997;-83
2023/11/16 11:09:44;;;;;;;13.00;10.20;;;;;;;10.31;100.00;100186.87;112744;1242;21955;-79
2023/11/16 11:12:21;;;;;;;14.30;10.60;;;;;;;10.19;100.00;100182.29;112759;1241;21988;-83
2023/11/16 11:14:55;;;;;;;15.10;11.70;;;;;;;10.12;100.00;100179.59;113945;1234;21955;-81
2023/11/16 11:17:35;;;;;;;14.00;12.20;;;;;;;10.04;100.00;100174.52;113886;1234;21919;-82
2023/11/16 11:20:47;;;;;;;;;;;;;;;10.00;100.00;100169.64;112573;1243;21948;-78
2023/11/16 11:23:41;;;;;;;20.70;14.00;;;;;;;9.83;100.00;100165.23;112614;1243;21961;-79
2023/11/16 11:27:11;;;;;;;;;;;;;;;;;;;;;
2023/11/16 11:30:27;;;;;;;33.20;23.70;;;;;;;9.77;100.00;100156.23;112168;1243;21950;-80
2023/11/16 11:33:59;;;;;;;58.50;36.40;;;;;;;9.77;100.00;100147.89;112700;1243;22739;-79
2023/11/16 11:37:11;;;;;;;77.10;35.50;;;;;;;9.79;100.00;100142.80;111548;1255;23632;-80
2023/11/16 11:39:46;;;;;;;87.50;37.40;;;;;;;9.87;100.00;100136.38;111975;1248;21984;-78
2023/11/16 11:42:38;;;;;;;61.80;19.80;;;;;;;9.90;100.00;100125.02;112326;1248;22184;-79
2023/11/16 11:45:26;;;;;;;72.60;21.10;;;;;;;10.07;100.00;100132.49;111708;1248;22147;-79
2023/11/16 11:48:07;;;;;;;33.50;18.20;;;;;;;10.21;100.00;100130.57;111723;1248;22227;-78
2023/11/16 11:50:36;;;;;;;65.90;18.30;;;;;;;10.36;100.00;100127.74;111350;1253;21975;-80
2023/11/16 11:53:27;;;;;;;28.10;11.40;;;;;;;10.39;100.00;100115.23;111402;1253;22117;-79
2023/11/16 11:56:15;;;;;;;12.10;7.80;;;;;;;10.51;100.00;100123.81;111706;1249;21984;-78
2023/11/16 11:58:55;;;;;;;22.10;7.50;;;;;;;10.59;100.00;100115.64;111613;1250;23064;-79
2023/11/16 12:01:50;;;;;;;12.30;7.40;;;;;;;10.69;100.00;100114.02;111712;1249;23648;-80